Terminal Aerodrome Forecast
Issued by NWS

Home | Current Version | Previous Version | Text Only | Print | Product List | Glossary On
Versions: 1 2 3 4 5 6 7 8 9 10 11 12 13 14
090
FTUS46 KSEW 081120
TAFCLM
TAF
KCLM 081120Z 0812/0912 12005KT P6SM SCT200
     FM082000 07006KT P6SM SCT250
     FM090200 11003KT P6SM SCT250=

USA.gov is the U.S. government's official web portal to all federal, state and local government web resources and services.